sensor_id;sensor_type;location;lat;lon;timestamp;pressure;altitude;pressure_sealevel;temperature
12234;BMP180;6179;51.748;8.728;2022-08-19T00:04:03;108427.00;;;222.90
12234;BMP180;6179;51.748;8.728;2022-08-19T00:10:07;108425.00;;;222.90
12234;BMP180;6179;51.748;8.728;2022-08-19T00:16:08;108424.00;;;222.90
12234;BMP180;6179;51.748;8.728;2022-08-19T00:22:09;108424.00;;;222.90
12234;BMP180;6179;51.748;8.728;2022-08-19T00:28:11;108429.00;;;222.90
12234;BMP180;6179;51.748;8.728;2022-08-19T00:34:13;108420.00;;;222.90
12234;BMP180;6179;51.748;8.728;2022-08-19T00:40:16;108425.00;;;222.90
12234;BMP180;6179;51.748;8.728;2022-08-19T00:46:16;108427.00;;;222.90
12234;BMP180;6179;51.748;8.728;2022-08-19T00:52:32;108423.00;;;222.90
12234;BMP180;6179;51.748;8.728;2022-08-19T00:58:35;108422.00;;;222.90
12234;BMP180;6179;51.748;8.728;2022-08-19T01:04:36;108423.00;;;222.90
12234;BMP180;6179;51.748;8.728;2022-08-19T01:10:43;108425.00;;;222.90
12234;BMP180;6179;51.748;8.728;2022-08-19T01:16:46;108423.00;;;222.90
12234;BMP180;6179;51.748;8.728;2022-08-19T01:22:53;108425.00;;;222.90
12234;BMP180;6179;51.748;8.728;2022-08-19T01:28:57;230388.00;;;222.90
12234;BMP180;6179;51.748;8.728;2022-08-19T01:34:58;230388.00;;;222.90
12234;BMP180;6179;51.748;8.728;2022-08-19T01:41:02;108420.00;;;222.90
12234;BMP180;6179;51.748;8.728;2022-08-19T01:47:04;108422.00;;;222.90
12234;BMP180;6179;51.748;8.728;2022-08-19T01:53:10;108424.00;;;222.90
12234;BMP180;6179;51.748;8.728;2022-08-19T01:59:20;108426.00;;;222.90
12234;BMP180;6179;51.748;8.728;2022-08-19T02:05:23;108424.00;;;222.90
12234;BMP180;6179;51.748;8.728;2022-08-19T02:11:29;108419.00;;;222.90
12234;BMP180;6179;51.748;8.728;2022-08-19T02:17:35;108422.00;;;222.90
12234;BMP180;6179;51.748;8.728;2022-08-19T02:23:37;108421.00;;;222.90
12234;BMP180;6179;51.748;8.728;2022-08-19T02:29:39;108424.00;;;222.90
12234;BMP180;6179;51.748;8.728;2022-08-19T02:35:45;108421.00;;;222.90
12234;BMP180;6179;51.748;8.728;2022-08-19T02:41:46;108426.00;;;222.90
12234;BMP180;6179;51.748;8.728;2022-08-19T02:47:47;108422.00;;;222.90
12234;BMP180;6179;51.748;8.728;2022-08-19T02:53:48;108422.00;;;222.90
12234;BMP180;6179;51.748;8.728;2022-08-19T02:59:49;230388.00;;;222.90
12234;BMP180;6179;51.748;8.728;2022-08-19T03:05:50;230388.00;;;222.90
12234;BMP180;6179;51.748;8.728;2022-08-19T03:11:51;230388.00;;;222.90
12234;BMP180;6179;51.748;8.728;2022-08-19T03:17:52;230388.00;;;222.90
12234;BMP180;6179;51.748;8.728;2022-08-19T03:23:59;230388.00;;;222.90
12234;BMP180;6179;51.748;8.728;2022-08-19T03:30:01;230388.00;;;222.90
12234;BMP180;6179;51.748;8.728;2022-08-19T03:36:12;230388.00;;;222.90
12234;BMP180;6179;51.748;8.728;2022-08-19T03:42:13;230388.00;;;222.90
12234;BMP180;6179;51.748;8.728;2022-08-19T03:48:14;230388.00;;;222.90
12234;BMP180;6179;51.748;8.728;2022-08-19T03:54:20;230388.00;;;222.90
12234;BMP180;6179;51.748;8.728;2022-08-19T04:00:23;230388.00;;;222.90
12234;BMP180;6179;51.748;8.728;2022-08-19T04:06:34;230388.00;;;222.90
12234;BMP180;6179;51.748;8.728;2022-08-19T04:12:35;230388.00;;;222.90
12234;BMP180;6179;51.748;8.728;2022-08-19T04:18:38;230388.00;;;222.90
12234;BMP180;6179;51.748;8.728;2022-08-19T04:24:39;230388.00;;;222.90
12234;BMP180;6179;51.748;8.728;2022-08-19T04:30:48;230388.00;;;222.90
12234;BMP180;6179;51.748;8.728;2022-08-19T04:36:51;230388.00;;;222.90
12234;BMP180;6179;51.748;8.728;2022-08-19T04:42:52;230388.00;;;222.90
12234;BMP180;6179;51.748;8.728;2022-08-19T04:48:53;230388.00;;;222.90
12234;BMP180;6179;51.748;8.728;2022-08-19T04:54:58;230388.00;;;222.90
12234;BMP180;6179;51.748;8.728;2022-08-19T05:00:59;230388.00;;;222.90
12234;BMP180;6179;51.748;8.728;2022-08-19T05:07:00;230388.00;;;222.90
12234;BMP180;6179;51.748;8.728;2022-08-19T05:13:01;230388.00;;;222.90
12234;BMP180;6179;51.748;8.728;2022-08-19T05:19:02;230388.00;;;222.90
12234;BMP180;6179;51.748;8.728;2022-08-19T05:25:22;230388.00;;;222.90
12234;BMP180;6179;51.748;8.728;2022-08-19T05:31:25;230388.00;;;222.90
12234;BMP180;6179;51.748;8.728;2022-08-19T05:37:26;230388.00;;;222.90
12234;BMP180;6179;51.748;8.728;2022-08-19T05:43:28;230388.00;;;222.90
12234;BMP180;6179;51.748;8.728;2022-08-19T05:49:32;230388.00;;;222.90
12234;BMP180;6179;51.748;8.728;2022-08-19T05:55:34;230388.00;;;222.90
12234;BMP180;6179;51.748;8.728;2022-08-19T06:01:38;230388.00;;;222.90
12234;BMP180;6179;51.748;8.728;2022-08-19T06:07:39;230388.00;;;222.90
12234;BMP180;6179;51.748;8.728;2022-08-19T06:13:40;230388.00;;;222.90
12234;BMP180;6179;51.748;8.728;2022-08-19T06:19:41;230388.00;;;222.90
12234;BMP180;6179;51.748;8.728;2022-08-19T06:25:44;230388.00;;;222.90
12234;BMP180;6179;51.748;8.728;2022-08-19T06:31:51;230388.00;;;222.90
12234;BMP180;6179;51.748;8.728;2022-08-19T06:37:53;230388.00;;;222.90
12234;BMP180;6179;51.748;8.728;2022-08-19T06:43:55;230388.00;;;222.90
12234;BMP180;6179;51.748;8.728;2022-08-19T06:49:58;230388.00;;;222.90
12234;BMP180;6179;51.748;8.728;2022-08-19T06:56:02;230388.00;;;222.90
12234;BMP180;6179;51.748;8.728;2022-08-19T07:02:05;230388.00;;;222.90
12234;BMP180;6179;51.748;8.728;2022-08-19T07:08:06;230388.00;;;222.90
12234;BMP180;6179;51.748;8.728;2022-08-19T07:14:08;230388.00;;;222.90
12234;BMP180;6179;51.748;8.728;2022-08-19T07:20:10;230388.00;;;222.90
12234;BMP180;6179;51.748;8.728;2022-08-19T07:26:24;230388.00;;;222.90
12234;BMP180;6179;51.748;8.728;2022-08-19T07:32:25;230388.00;;;222.90
12234;BMP180;6179;51.748;8.728;2022-08-19T07:38:27;230388.00;;;222.90
12234;BMP180;6179;51.748;8.728;2022-08-19T07:44:28;230388.00;;;222.90
12234;BMP180;6179;51.748;8.728;2022-08-19T07:50:29;230388.00;;;222.90
12234;BMP180;6179;51.748;8.728;2022-08-19T07:56:29;230388.00;;;222.90
12234;BMP180;6179;51.748;8.728;2022-08-19T08:02:30;230388.00;;;222.90
12234;BMP180;6179;51.748;8.728;2022-08-19T08:08:31;230388.00;;;222.90
12234;BMP180;6179;51.748;8.728;2022-08-19T08:14:55;230388.00;;;222.90
12234;BMP180;6179;51.748;8.728;2022-08-19T08:20:57;230388.00;;;222.90
12234;BMP180;6179;51.748;8.728;2022-08-19T08:27:00;98226.00;;;222.90
12234;BMP180;6179;51.748;8.728;2022-08-19T08:33:01;108420.00;;;222.90
12234;BMP180;6179;51.748;8.728;2022-08-19T08:39:02;230388.00;;;222.90
12234;BMP180;6179;51.748;8.728;2022-08-19T08:45:13;108424.00;;;222.90
12234;BMP180;6179;51.748;8.728;2022-08-19T08:51:33;230388.00;;;222.90
12234;BMP180;6179;51.748;8.728;2022-08-19T09:03:55;230388.00;;;222.90
12234;BMP180;6179;51.748;8.728;2022-08-19T09:16:22;108426.00;;;222.90
12234;BMP180;6179;51.748;8.728;2022-08-19T09:22:27;108427.00;;;222.90
12234;BMP180;6179;51.748;8.728;2022-08-19T09:28:31;230388.00;;;222.90
12234;BMP180;6179;51.748;8.728;2022-08-19T09:34:32;230388.00;;;222.90
12234;BMP180;6179;51.748;8.728;2022-08-19T09:40:33;230388.00;;;222.90
12234;BMP180;6179;51.748;8.728;2022-08-19T09:46:34;230388.00;;;222.90
12234;BMP180;6179;51.748;8.728;2022-08-19T09:52:37;230388.00;;;222.90
12234;BMP180;6179;51.748;8.728;2022-08-19T09:58:39;108426.00;;;222.90
12234;BMP180;6179;51.748;8.728;2022-08-19T10:04:40;108423.00;;;222.90
12234;BMP180;6179;51.748;8.728;2022-08-19T10:11:01;230388.00;;;222.90
12234;BMP180;6179;51.748;8.728;2022-08-19T10:17:02;230388.00;;;222.90
12234;BMP180;6179;51.748;8.728;2022-08-19T10:23:03;108426.00;;;222.90
12234;BMP180;6179;51.748;8.728;2022-08-19T10:29:05;230388.00;;;222.90
12234;BMP180;6179;51.748;8.728;2022-08-19T10:35:06;230388.00;;;143.50
12234;BMP180;6179;51.748;8.728;2022-08-19T10:41:14;230386.00;;;222.90
12234;BMP180;6179;51.748;8.728;2022-08-19T10:47:15;108422.00;;;222.90
12234;BMP180;6179;51.748;8.728;2022-08-19T10:53:16;230388.00;;;222.90
12234;BMP180;6179;51.748;8.728;2022-08-19T10:59:25;108426.00;;;222.90
12234;BMP180;6179;51.748;8.728;2022-08-19T11:05:26;98228.00;;;222.90
12234;BMP180;6179;51.748;8.728;2022-08-19T11:11:27;108427.00;;;222.90
12234;BMP180;6179;51.748;8.728;2022-08-19T11:17:28;230388.00;;;222.90
12234;BMP180;6179;51.748;8.728;2022-08-19T11:23:31;230388.00;;;222.90
12234;BMP180;6179;51.748;8.728;2022-08-19T11:29:33;108425.00;;;222.90
12234;BMP180;6179;51.748;8.728;2022-08-19T11:35:39;108423.00;;;222.90
12234;BMP180;6179;51.748;8.728;2022-08-19T11:41:41;230386.00;;;222.90
12234;BMP180;6179;51.748;8.728;2022-08-19T11:47:42;108425.00;;;222.90
12234;BMP180;6179;51.748;8.728;2022-08-19T11:53:45;108423.00;;;222.90
12234;BMP180;6179;51.748;8.728;2022-08-19T11:59:51;108426.00;;;222.90
12234;BMP180;6179;51.748;8.728;2022-08-19T12:05:53;230388.00;;;222.90
12234;BMP180;6179;51.748;8.728;2022-08-19T12:11:54;108421.00;;;222.90
12234;BMP180;6179;51.748;8.728;2022-08-19T12:17:56;108409.00;;;222.90
12234;BMP180;6179;51.748;8.728;2022-08-19T12:24:00;230388.00;;;222.90
12234;BMP180;6179;51.748;8.728;2022-08-19T12:30:04;230388.00;;;222.90
12234;BMP180;6179;51.748;8.728;2022-08-19T12:36:09;230388.00;;;222.90
12234;BMP180;6179;51.748;8.728;2022-08-19T12:42:13;230388.00;;;222.90
12234;BMP180;6179;51.748;8.728;2022-08-19T12:48:14;230388.00;;;222.90
12234;BMP180;6179;51.748;8.728;2022-08-19T12:54:15;230388.00;;;222.90
12234;BMP180;6179;51.748;8.728;2022-08-19T13:00:19;230388.00;;;222.90
12234;BMP180;6179;51.748;8.728;2022-08-19T13:06:21;230388.00;;;222.90
12234;BMP180;6179;51.748;8.728;2022-08-19T13:12:23;230388.00;;;222.90
12234;BMP180;6179;51.748;8.728;2022-08-19T13:18:25;230388.00;;;222.90
12234;BMP180;6179;51.748;8.728;2022-08-19T13:24:26;230388.00;;;222.90
12234;BMP180;6179;51.748;8.728;2022-08-19T13:30:27;230388.00;;;222.90
12234;BMP180;6179;51.748;8.728;2022-08-19T13:36:46;230388.00;;;222.90
12234;BMP180;6179;51.748;8.728;2022-08-19T13:42:51;230388.00;;;222.90
12234;BMP180;6179;51.748;8.728;2022-08-19T13:48:52;230388.00;;;222.90
12234;BMP180;6179;51.748;8.728;2022-08-19T13:54:53;230388.00;;;222.90
12234;BMP180;6179;51.748;8.728;2022-08-19T14:00:54;230388.00;;;222.90
12234;BMP180;6179;51.748;8.728;2022-08-19T14:06:55;230388.00;;;222.90
12234;BMP180;6179;51.748;8.728;2022-08-19T14:12:58;230388.00;;;222.90
12234;BMP180;6179;51.748;8.728;2022-08-19T14:18:59;230388.00;;;222.90
12234;BMP180;6179;51.748;8.728;2022-08-19T14:25:00;230388.00;;;222.90
12234;BMP180;6179;51.748;8.728;2022-08-19T14:31:01;230388.00;;;222.90
12234;BMP180;6179;51.748;8.728;2022-08-19T14:37:03;230388.00;;;222.90
12234;BMP180;6179;51.748;8.728;2022-08-19T14:43:04;230388.00;;;222.90
12234;BMP180;6179;51.748;8.728;2022-08-19T14:49:06;230388.00;;;222.90
12234;BMP180;6179;51.748;8.728;2022-08-19T14:55:07;230388.00;;;222.90
12234;BMP180;6179;51.748;8.728;2022-08-19T15:01:10;230388.00;;;222.90
12234;BMP180;6179;51.748;8.728;2022-08-19T15:07:11;230388.00;;;222.90
12234;BMP180;6179;51.748;8.728;2022-08-19T15:13:12;230388.00;;;222.90
12234;BMP180;6179;51.748;8.728;2022-08-19T15:19:13;230388.00;;;222.90
12234;BMP180;6179;51.748;8.728;2022-08-19T15:25:17;230388.00;;;222.90
12234;BMP180;6179;51.748;8.728;2022-08-19T15:31:20;230388.00;;;222.90
12234;BMP180;6179;51.748;8.728;2022-08-19T15:37:22;230388.00;;;222.90
12234;BMP180;6179;51.748;8.728;2022-08-19T15:43:23;230388.00;;;222.90
12234;BMP180;6179;51.748;8.728;2022-08-19T15:49:24;230388.00;;;222.90
12234;BMP180;6179;51.748;8.728;2022-08-19T15:55:33;230388.00;;;222.90
12234;BMP180;6179;51.748;8.728;2022-08-19T16:01:34;230388.00;;;222.90
12234;BMP180;6179;51.748;8.728;2022-08-19T16:07:54;230388.00;;;222.90
12234;BMP180;6179;51.748;8.728;2022-08-19T16:13:57;230388.00;;;222.90
12234;BMP180;6179;51.748;8.728;2022-08-19T16:19:58;230388.00;;;222.90
12234;BMP180;6179;51.748;8.728;2022-08-19T16:25:59;230388.00;;;222.90
12234;BMP180;6179;51.748;8.728;2022-08-19T16:32:03;230388.00;;;222.90
12234;BMP180;6179;51.748;8.728;2022-08-19T16:38:05;230388.00;;;222.90
12234;BMP180;6179;51.748;8.728;2022-08-19T16:44:08;230388.00;;;222.90
12234;BMP180;6179;51.748;8.728;2022-08-19T16:50:10;230388.00;;;222.90
12234;BMP180;6179;51.748;8.728;2022-08-19T16:56:11;230388.00;;;222.90
12234;BMP180;6179;51.748;8.728;2022-08-19T17:02:12;230388.00;;;222.90
12234;BMP180;6179;51.748;8.728;2022-08-19T17:08:15;230388.00;;;222.90
12234;BMP180;6179;51.748;8.728;2022-08-19T17:14:16;230388.00;;;222.90
12234;BMP180;6179;51.748;8.728;2022-08-19T17:20:20;230388.00;;;222.90
12234;BMP180;6179;51.748;8.728;2022-08-19T17:26:22;230388.00;;;222.90
12234;BMP180;6179;51.748;8.728;2022-08-19T17:32:23;230388.00;;;222.90
12234;BMP180;6179;51.748;8.728;2022-08-19T17:38:23;230388.00;;;222.90
12234;BMP180;6179;51.748;8.728;2022-08-19T17:44:25;230388.00;;;222.90
12234;BMP180;6179;51.748;8.728;2022-08-19T17:50:27;230388.00;;;222.90
12234;BMP180;6179;51.748;8.728;2022-08-19T17:56:28;230388.00;;;222.90
12234;BMP180;6179;51.748;8.728;2022-08-19T18:02:29;230388.00;;;222.90
12234;BMP180;6179;51.748;8.728;2022-08-19T18:08:31;230388.00;;;222.90
12234;BMP180;6179;51.748;8.728;2022-08-19T18:14:38;230388.00;;;222.90
12234;BMP180;6179;51.748;8.728;2022-08-19T18:20:39;230388.00;;;222.90
12234;BMP180;6179;51.748;8.728;2022-08-19T18:26:40;230388.00;;;222.90
12234;BMP180;6179;51.748;8.728;2022-08-19T18:32:42;230388.00;;;222.90
12234;BMP180;6179;51.748;8.728;2022-08-19T18:38:44;230388.00;;;222.90
12234;BMP180;6179;51.748;8.728;2022-08-19T18:45:05;230388.00;;;222.90
12234;BMP180;6179;51.748;8.728;2022-08-19T18:51:25;230388.00;;;222.90
12234;BMP180;6179;51.748;8.728;2022-08-19T18:57:29;230388.00;;;222.90
12234;BMP180;6179;51.748;8.728;2022-08-19T19:03:30;230388.00;;;222.90
12234;BMP180;6179;51.748;8.728;2022-08-19T19:09:31;230388.00;;;222.90
12234;BMP180;6179;51.748;8.728;2022-08-19T19:15:32;230388.00;;;222.90
12234;BMP180;6179;51.748;8.728;2022-08-19T19:21:34;230388.00;;;222.90
12234;BMP180;6179;51.748;8.728;2022-08-19T19:27:35;230388.00;;;222.90
12234;BMP180;6179;51.748;8.728;2022-08-19T19:33:36;230388.00;;;222.90
12234;BMP180;6179;51.748;8.728;2022-08-19T19:39:37;230388.00;;;222.90
12234;BMP180;6179;51.748;8.728;2022-08-19T19:45:38;230388.00;;;222.90
12234;BMP180;6179;51.748;8.728;2022-08-19T19:51:40;230388.00;;;222.90
12234;BMP180;6179;51.748;8.728;2022-08-19T19:57:41;230388.00;;;222.90
12234;BMP180;6179;51.748;8.728;2022-08-19T20:03:43;230388.00;;;222.90
12234;BMP180;6179;51.748;8.728;2022-08-19T20:09:44;230388.00;;;222.90
12234;BMP180;6179;51.748;8.728;2022-08-19T20:15:45;230388.00;;;222.90
12234;BMP180;6179;51.748;8.728;2022-08-19T20:21:48;230388.00;;;222.90
12234;BMP180;6179;51.748;8.728;2022-08-19T20:27:49;230388.00;;;222.90
12234;BMP180;6179;51.748;8.728;2022-08-19T20:33:50;230388.00;;;222.90
12234;BMP180;6179;51.748;8.728;2022-08-19T20:39:51;230388.00;;;222.90
12234;BMP180;6179;51.748;8.728;2022-08-19T20:45:53;230388.00;;;222.90
12234;BMP180;6179;51.748;8.728;2022-08-19T20:51:55;230388.00;;;222.90
12234;BMP180;6179;51.748;8.728;2022-08-19T20:57:57;230388.00;;;222.90
12234;BMP180;6179;51.748;8.728;2022-08-19T21:03:58;230388.00;;;222.90
12234;BMP180;6179;51.748;8.728;2022-08-19T21:09:59;230388.00;;;222.90
12234;BMP180;6179;51.748;8.728;2022-08-19T21:16:00;230388.00;;;222.90
12234;BMP180;6179;51.748;8.728;2022-08-19T21:22:02;230388.00;;;222.90
12234;BMP180;6179;51.748;8.728;2022-08-19T21:28:04;230388.00;;;222.90
12234;BMP180;6179;51.748;8.728;2022-08-19T21:34:05;230388.00;;;222.90
12234;BMP180;6179;51.748;8.728;2022-08-19T21:40:07;230388.00;;;222.90
12234;BMP180;6179;51.748;8.728;2022-08-19T21:46:08;230388.00;;;222.90
12234;BMP180;6179;51.748;8.728;2022-08-19T21:52:09;230388.00;;;222.90
12234;BMP180;6179;51.748;8.728;2022-08-19T21:58:10;230388.00;;;222.90
12234;BMP180;6179;51.748;8.728;2022-08-19T22:04:11;230388.00;;;222.90
12234;BMP180;6179;51.748;8.728;2022-08-19T22:10:12;230388.00;;;222.90
12234;BMP180;6179;51.748;8.728;2022-08-19T22:16:13;230388.00;;;222.90
12234;BMP180;6179;51.748;8.728;2022-08-19T22:22:28;230388.00;;;222.90
12234;BMP180;6179;51.748;8.728;2022-08-19T22:28:29;230388.00;;;222.90
12234;BMP180;6179;51.748;8.728;2022-08-19T22:34:30;230388.00;;;222.90
12234;BMP180;6179;51.748;8.728;2022-08-19T22:40:33;230388.00;;;222.90
12234;BMP180;6179;51.748;8.728;2022-08-19T22:46:36;230388.00;;;222.90
12234;BMP180;6179;51.748;8.728;2022-08-19T22:52:37;230388.00;;;222.90
12234;BMP180;6179;51.748;8.728;2022-08-19T22:58:38;230388.00;;;222.90
12234;BMP180;6179;51.748;8.728;2022-08-19T23:04:39;230388.00;;;222.90
12234;BMP180;6179;51.748;8.728;2022-08-19T23:10:41;230388.00;;;222.90
12234;BMP180;6179;51.748;8.728;2022-08-19T23:16:43;230388.00;;;222.90
12234;BMP180;6179;51.748;8.728;2022-08-19T23:22:46;230388.00;;;222.90
12234;BMP180;6179;51.748;8.728;2022-08-19T23:28:49;230388.00;;;222.90
12234;BMP180;6179;51.748;8.728;2022-08-19T23:35:08;230388.00;;;222.90
12234;BMP180;6179;51.748;8.728;2022-08-19T23:41:11;230388.00;;;222.90
12234;BMP180;6179;51.748;8.728;2022-08-19T23:47:12;230388.00;;;222.90
12234;BMP180;6179;51.748;8.728;2022-08-19T23:53:14;230388.00;;;222.90
12234;BMP180;6179;51.748;8.728;2022-08-19T23:59:15;230388.00;;;222.90
